createdAt,value
2018-12-24T00:02:11.673Z,70.00
2018-12-24T00:04:40.829Z,70.20
2018-12-24T00:07:29.176Z,70.70
2018-12-24T00:10:36.644Z,70.80
2018-12-24T00:13:28.158Z,69.80
2018-12-24T00:16:16.878Z,70.10
2018-12-24T00:19:05.271Z,70.00
2018-12-24T00:21:53.971Z,70.60
2018-12-24T00:24:42.486Z,70.70
2018-12-24T00:33:25.669Z,69.30
2018-12-24T00:36:13.964Z,70.00
2018-12-24T00:39:21.506Z,70.00
2018-12-24T00:42:15.795Z,70.70
2018-12-24T00:45:00.294Z,70.10
2018-12-24T00:47:48.725Z,70.50
2018-12-24T00:50:49.409Z,70.80
2018-12-24T00:53:20.419Z,70.00
2018-12-24T00:59:14.362Z,70.30
2018-12-24T01:01:55.307Z,69.70
2018-12-24T01:04:36.398Z,67.80
2018-12-24T01:07:17.133Z,65.80
2018-12-24T01:09:58.785Z,64.70
2018-12-24T01:12:40.122Z,65.40
2018-12-24T01:17:51.879Z,65.10
2018-12-24T01:20:40.338Z,64.70
2018-12-24T01:23:09.645Z,66.00
2018-12-24T01:25:58.168Z,66.50
2018-12-24T01:28:47.157Z,65.00
2018-12-24T01:31:37.469Z,65.10
2018-12-24T01:34:26.769Z,66.00
2018-12-24T01:37:17.604Z,66.50
2018-12-24T01:43:32.531Z,66.30
2018-12-24T01:46:20.893Z,65.80
2018-12-24T01:49:09.578Z,65.40
2018-12-24T01:54:34.996Z,65.90
2018-12-24T01:57:15.789Z,65.40
2018-12-24T01:59:45.312Z,64.70
2018-12-24T02:02:33.840Z,66.00
2018-12-24T02:05:22.249Z,65.10
2018-12-24T02:08:10.814Z,64.70
2018-12-24T02:10:59.305Z,63.30
2018-12-24T02:13:48.133Z,62.80
2018-12-24T02:16:19.488Z,63.50
2018-12-24T02:19:10.435Z,63.40
2018-12-24T02:22:20.672Z,63.20
2018-12-24T02:25:09.327Z,63.50
2018-12-24T02:27:59.099Z,63.60
2018-12-24T02:30:48.997Z,63.30
2018-12-24T02:33:37.829Z,63.10
2018-12-24T02:36:26.809Z,64.60
2018-12-24T02:38:56.913Z,64.40
2018-12-24T02:41:57.397Z,63.50
2018-12-24T02:44:35.348Z,64.00
2018-12-24T02:47:24.238Z,64.60
2018-12-24T02:50:12.765Z,63.90
2018-12-24T02:52:54.451Z,63.40
2018-12-24T02:55:35.686Z,65.30
2018-12-24T03:00:59.486Z,64.50
2018-12-24T03:08:47.725Z,63.70
2018-12-24T03:11:36.970Z,63.20
2018-12-24T03:14:25.997Z,64.40
2018-12-24T03:17:15.499Z,64.20
2018-12-24T03:20:04.079Z,65.50
2018-12-24T03:22:53.145Z,64.90
2018-12-24T03:25:41.489Z,64.50
2018-12-24T03:28:29.925Z,65.10
2018-12-24T03:31:18.352Z,65.10
2018-12-24T03:33:47.694Z,65.20
2018-12-24T03:36:36.145Z,65.20
2018-12-24T03:39:26.173Z,64.90
2018-12-24T03:42:14.744Z,65.60
2018-12-24T03:44:44.027Z,65.20
2018-12-24T03:47:32.998Z,65.50
2018-12-24T03:50:21.365Z,65.30
2018-12-24T03:55:33.487Z,65.20
2018-12-24T03:58:21.908Z,64.70
2018-12-24T04:01:10.721Z,63.70
2018-12-24T04:03:59.112Z,63.80
2018-12-24T04:06:47.598Z,64.20
2018-12-24T04:09:35.934Z,63.20
2018-12-24T04:12:24.465Z,64.30
2018-12-24T04:14:53.637Z,64.80
2018-12-24T04:17:41.946Z,64.20
2018-12-24T04:20:30.329Z,63.80
2018-12-24T04:23:18.652Z,65.00
2018-12-24T04:25:47.842Z,64.40
2018-12-24T04:28:36.151Z,64.30
2018-12-24T04:31:43.483Z,64.00
2018-12-24T04:34:31.788Z,63.80
2018-12-24T04:37:20.371Z,64.00
2018-12-24T04:40:08.747Z,63.70
2018-12-24T04:42:57.372Z,63.70
2018-12-24T04:45:45.835Z,63.60
2018-12-24T04:48:34.169Z,63.60
2018-12-24T04:51:23.557Z,63.90
2018-12-24T04:54:04.986Z,63.40
2018-12-24T04:56:45.651Z,63.90
2018-12-24T04:59:26.862Z,63.00
2018-12-24T05:02:11.664Z,64.70
2018-12-24T05:04:53.132Z,64.40
2018-12-24T05:07:34.597Z,64.40
2018-12-24T05:10:15.269Z,64.80
2018-12-24T05:12:56.810Z,63.50
2018-12-24T05:15:41.526Z,63.40
2018-12-24T05:18:24.924Z,63.60
2018-12-24T05:21:06.069Z,63.30
2018-12-24T05:26:29.640Z,62.70
2018-12-24T05:29:10.979Z,62.80
2018-12-24T05:31:52.535Z,62.90
2018-12-24T05:34:33.883Z,62.20
2018-12-24T05:37:03.294Z,61.80
2018-12-24T05:39:51.949Z,62.20
2018-12-24T05:42:40.491Z,62.50
2018-12-24T05:45:28.825Z,61.90
2018-12-24T05:48:17.314Z,61.70
2018-12-24T05:50:46.714Z,62.10
2018-12-24T05:53:27.407Z,61.10
2018-12-24T05:56:08.852Z,61.10
2018-12-24T05:58:50.204Z,60.50
2018-12-24T06:01:31.838Z,61.10
2018-12-24T06:04:12.877Z,61.40
2018-12-24T06:06:54.287Z,61.20
2018-12-24T06:09:35.427Z,60.90
2018-12-24T06:12:16.512Z,61.10
2018-12-24T06:14:57.799Z,61.10
2018-12-24T06:17:39.170Z,60.80
2018-12-24T06:20:20.359Z,60.80
2018-12-24T06:25:50.639Z,61.20
2018-12-24T06:28:33.441Z,60.70
2018-12-24T06:31:15.198Z,60.60
2018-12-24T06:33:56.777Z,61.10
2018-12-24T06:36:37.559Z,60.70
2018-12-24T06:39:19.308Z,60.80
2018-12-24T06:42:00.465Z,60.70
2018-12-24T06:44:41.634Z,59.40
2018-12-24T06:47:22.508Z,59.80
2018-12-24T06:50:03.719Z,59.50
2018-12-24T06:53:07.417Z,59.10
2018-12-24T06:55:37.185Z,60.00
2018-12-24T06:58:25.564Z,59.40
2018-12-24T07:00:56.770Z,59.70
2018-12-24T07:03:45.328Z,60.00
2018-12-24T07:06:33.814Z,60.00
2018-12-24T07:09:04.413Z,59.50
2018-12-24T07:11:34.120Z,59.80
2018-12-24T07:14:23.266Z,60.40
2018-12-24T07:17:11.936Z,59.50
2018-12-24T07:19:41.758Z,59.00
2018-12-24T07:22:10.969Z,60.00
2018-12-24T07:24:59.562Z,59.80
2018-12-24T07:27:48.395Z,59.50
2018-12-24T07:30:36.739Z,59.30
2018-12-24T07:33:25.191Z,59.50
2018-12-24T07:36:13.800Z,59.70
2018-12-24T07:39:02.253Z,59.50
2018-12-24T07:41:50.646Z,59.30
2018-12-24T07:44:39.380Z,59.50
2018-12-24T07:47:28.573Z,59.30
2018-12-24T07:49:58.496Z,59.10
2018-12-24T07:52:28.551Z,59.10
2018-12-24T07:55:17.083Z,58.90
2018-12-24T07:58:05.655Z,59.10
2018-12-24T08:00:56.876Z,59.10
2018-12-24T08:03:45.271Z,58.90
2018-12-24T08:06:33.900Z,59.00
2018-12-24T08:09:22.324Z,59.30
2018-12-24T08:12:12.813Z,59.50
2018-12-24T08:18:08.352Z,59.30
2018-12-24T08:20:56.710Z,60.40
2018-12-24T08:23:45.282Z,59.00
2018-12-24T08:26:33.595Z,58.70
2018-12-24T08:29:21.899Z,58.00
2018-12-24T08:32:11.603Z,57.80
2018-12-24T08:35:00.866Z,57.90
2018-12-24T08:37:49.482Z,58.20
2018-12-24T08:40:38.040Z,57.80
2018-12-24T08:43:09.120Z,58.00
2018-12-24T08:45:57.462Z,57.70
2018-12-24T08:48:48.179Z,57.00
2018-12-24T08:51:36.584Z,57.20
2018-12-24T08:57:19.166Z,57.80
2018-12-24T09:00:07.966Z,57.40
2018-12-24T09:03:18.412Z,57.40
2018-12-24T09:06:06.953Z,56.80
2018-12-24T09:08:55.424Z,57.10
2018-12-24T09:11:24.679Z,57.30
2018-12-24T09:14:13.186Z,57.60
2018-12-24T09:17:01.579Z,56.00
2018-12-24T09:19:50.546Z,55.80
2018-12-24T09:22:19.790Z,55.00
2018-12-24T09:25:08.197Z,55.50
2018-12-24T09:27:56.628Z,56.40
2018-12-24T09:30:38.195Z,56.20
2018-12-24T09:33:19.797Z,55.30
2018-12-24T09:36:02.403Z,53.30
2018-12-24T09:38:43.228Z,51.60
2018-12-24T09:41:24.416Z,50.10
2018-12-24T09:44:06.418Z,50.20
2018-12-24T09:46:47.706Z,51.70
2018-12-24T09:49:29.318Z,53.20
2018-12-24T09:52:08.565Z,54.00
2018-12-24T09:55:16.760Z,54.30
2018-12-24T09:58:26.006Z,54.50
2018-12-24T10:01:14.383Z,54.40
2018-12-24T10:04:06.897Z,55.50
2018-12-24T10:10:04.846Z,56.60
2018-12-24T10:12:53.392Z,56.30
2018-12-24T10:15:41.937Z,56.40
2018-12-24T10:18:30.470Z,54.60
2018-12-24T10:24:12.488Z,51.90
2018-12-24T10:30:08.272Z,51.10
2018-12-24T10:32:56.622Z,50.50
2018-12-24T10:35:45.179Z,50.20
2018-12-24T10:41:13.924Z,45.40
2018-12-24T10:44:02.338Z,42.40
2018-12-24T10:46:43.742Z,43.50
2018-12-24T10:52:11.285Z,45.10
2018-12-24T10:54:51.893Z,44.80
2018-12-24T10:57:32.590Z,45.90
2018-12-24T11:00:04.152Z,47.00
2018-12-24T11:02:33.287Z,43.10
2018-12-24T11:05:04.931Z,39.80
2018-12-24T11:07:53.481Z,40.90
2018-12-24T11:10:42.057Z,42.00
2018-12-24T11:13:30.763Z,43.40
2018-12-24T11:16:00.226Z,44.50
2018-12-24T11:21:25.811Z,46.50
2018-12-24T11:24:14.239Z,46.20
2018-12-24T11:26:56.749Z,46.10
2018-12-24T11:29:38.164Z,47.10
2018-12-24T11:32:27.577Z,46.80
2018-12-24T11:37:51.652Z,45.70
2018-12-24T11:40:33.100Z,45.80
2018-12-24T11:43:14.455Z,46.50
2018-12-24T11:48:40.767Z,46.70
2018-12-24T11:51:10.490Z,46.60
2018-12-24T11:53:58.882Z,47.10
2018-12-24T11:56:55.003Z,47.30
2018-12-24T11:59:24.320Z,46.90
2018-12-24T12:02:12.685Z,47.50
2018-12-24T12:05:01.440Z,47.90
2018-12-24T12:07:49.852Z,46.90
2018-12-24T12:10:19.053Z,46.90
2018-12-24T12:13:26.721Z,47.00
2018-12-24T12:16:15.516Z,47.00
2018-12-24T12:19:04.114Z,47.30
2018-12-24T12:22:07.801Z,46.40
2018-12-24T12:24:42.857Z,47.00
2018-12-24T12:27:31.844Z,46.80
2018-12-24T12:30:01.451Z,46.90
2018-12-24T12:32:50.512Z,47.50
2018-12-24T12:40:58.287Z,44.30
2018-12-24T12:43:46.684Z,45.70
2018-12-24T12:46:15.837Z,44.90
2018-12-24T12:49:06.401Z,45.60
2018-12-24T12:51:35.623Z,45.90
2018-12-24T12:54:05.520Z,46.70
2018-12-24T12:56:54.053Z,46.60
2018-12-24T12:59:42.417Z,45.80
2018-12-24T13:02:30.846Z,46.50
2018-12-24T13:05:19.335Z,46.90
2018-12-24T13:08:07.883Z,46.10
2018-12-24T13:10:56.949Z,43.90
2018-12-24T13:13:45.581Z,44.20
2018-12-24T13:16:26.255Z,44.40
2018-12-24T13:18:55.533Z,44.50
2018-12-24T13:21:44.008Z,45.30
2018-12-24T13:24:32.490Z,45.10
2018-12-24T13:27:20.882Z,42.50
2018-12-24T13:29:50.085Z,44.30
2018-12-24T13:32:19.309Z,46.80
2018-12-24T13:35:07.957Z,48.00
2018-12-24T13:37:37.142Z,49.30
2018-12-24T13:40:06.489Z,49.80
2018-12-24T13:42:35.674Z,52.10
2018-12-24T13:45:24.090Z,51.80
2018-12-24T13:48:12.679Z,52.80
2018-12-24T13:51:01.144Z,53.20
2018-12-24T13:54:09.110Z,53.10
2018-12-24T13:56:38.388Z,53.20
2018-12-24T13:59:26.719Z,53.90
2018-12-24T14:01:56.328Z,53.70
2018-12-24T14:04:45.217Z,53.60
2018-12-24T14:07:14.461Z,54.10
2018-12-24T14:10:02.903Z,54.40
2018-12-24T14:12:51.227Z,54.70
2018-12-24T14:15:39.676Z,54.90
2018-12-24T14:18:21.012Z,55.10
2018-12-24T14:21:02.634Z,55.10
2018-12-24T14:23:43.638Z,54.40
2018-12-24T14:26:25.494Z,53.70
2018-12-24T14:29:06.562Z,53.70
2018-12-24T14:34:31.965Z,53.10
2018-12-24T14:37:01.213Z,52.70
2018-12-24T14:39:30.602Z,52.40
2018-12-24T14:42:19.329Z,53.30
2018-12-24T14:45:22.926Z,52.80
2018-12-24T14:47:57.933Z,52.60
2018-12-24T14:50:27.196Z,52.00
2018-12-24T14:52:56.523Z,52.00
2018-12-24T14:55:44.810Z,52.40
2018-12-24T14:58:33.596Z,52.10
2018-12-24T15:01:21.987Z,52.60
2018-12-24T15:04:10.401Z,52.20
2018-12-24T15:06:39.822Z,52.40
2018-12-24T15:09:09.619Z,52.50
2018-12-24T15:11:58.071Z,52.30
2018-12-24T15:14:46.827Z,52.30
2018-12-24T15:17:35.327Z,52.50
2018-12-24T15:22:58.937Z,53.40
2018-12-24T15:25:47.447Z,53.00
2018-12-24T15:28:35.886Z,53.10
2018-12-24T15:31:24.525Z,53.60
2018-12-24T15:34:32.823Z,53.30
2018-12-24T15:37:21.464Z,53.40
2018-12-24T15:40:10.268Z,52.90
2018-12-24T15:42:58.805Z,53.40
2018-12-24T15:45:47.232Z,53.10
2018-12-24T15:48:16.742Z,53.10
2018-12-24T15:53:40.800Z,53.00
2018-12-24T15:58:59.318Z,52.40
2018-12-24T16:01:49.662Z,52.30
2018-12-24T16:04:38.486Z,52.30
2018-12-24T16:07:57.921Z,52.00
2018-12-24T16:13:41.044Z,52.00
2018-12-24T16:19:25.332Z,51.80
2018-12-24T16:22:29.119Z,51.20
2018-12-24T16:25:09.513Z,51.60
2018-12-24T16:30:35.355Z,51.00
2018-12-24T16:33:23.716Z,51.20
2018-12-24T16:36:12.165Z,51.20
2018-12-24T16:39:00.999Z,51.20
2018-12-24T16:41:49.309Z,51.40
2018-12-24T16:44:57.189Z,51.10
2018-12-24T16:47:45.570Z,51.20
2018-12-24T16:50:14.691Z,51.40
2018-12-24T16:53:03.423Z,51.30
2018-12-24T16:55:51.885Z,51.70
2018-12-24T17:01:30.708Z,51.60
2018-12-24T17:04:12.328Z,51.40
2018-12-24T17:06:56.748Z,51.60
2018-12-24T17:09:26.007Z,51.50
2018-12-24T17:12:14.403Z,51.40
2018-12-24T17:15:03.254Z,51.10
2018-12-24T17:17:51.574Z,51.30
2018-12-24T17:20:59.109Z,51.50
2018-12-24T17:23:47.394Z,51.50
2018-12-24T17:26:35.885Z,51.10
2018-12-24T17:29:24.474Z,51.20
2018-12-24T17:32:05.714Z,51.20
2018-12-24T17:34:34.846Z,51.00
2018-12-24T17:37:35.770Z,51.50
2018-12-24T17:40:13.323Z,51.50
2018-12-24T17:43:04.427Z,51.60
2018-12-24T17:46:05.226Z,52.50
2018-12-24T17:48:43.218Z,52.70
2018-12-24T17:51:12.549Z,53.50
2018-12-24T17:53:41.721Z,54.40
2018-12-24T17:56:30.125Z,54.50
2018-12-24T17:58:59.602Z,54.20
2018-12-24T18:01:28.802Z,54.00
2018-12-24T18:04:17.206Z,54.10
2018-12-24T18:07:05.876Z,54.60
2018-12-24T18:09:54.224Z,54.70
2018-12-24T18:12:42.831Z,54.30
2018-12-24T18:15:31.316Z,54.80
2018-12-24T18:18:20.101Z,54.70
2018-12-24T18:21:10.798Z,54.40
2018-12-24T18:23:40.522Z,54.30
2018-12-24T18:26:29.215Z,54.30
2018-12-24T18:28:58.936Z,53.60
2018-12-24T18:31:40.064Z,53.70
2018-12-24T18:34:21.108Z,53.00
2018-12-24T18:37:02.062Z,53.00
2018-12-24T18:39:43.042Z,52.80
2018-12-24T18:42:24.018Z,52.70
2018-12-24T18:44:54.211Z,52.30
2018-12-24T18:47:42.880Z,53.00
2018-12-24T18:50:31.379Z,53.30
2018-12-24T18:53:20.003Z,54.00
2018-12-24T18:56:08.558Z,54.30
2018-12-24T18:58:56.904Z,54.10
2018-12-24T19:01:45.258Z,54.50
2018-12-24T19:07:22.115Z,54.50
2018-12-24T19:10:30.235Z,54.40
2018-12-24T19:18:41.930Z,54.90
2018-12-24T19:21:11.125Z,54.70
2018-12-24T19:23:59.570Z,54.90
2018-12-24T19:26:48.024Z,54.80
2018-12-24T19:29:36.378Z,54.80
2018-12-24T19:32:47.414Z,54.70
2018-12-24T19:35:35.936Z,54.50
2018-12-24T19:41:20.212Z,53.70
2018-12-24T19:44:08.610Z,53.30
2018-12-24T19:46:49.460Z,53.40
2018-12-24T19:49:31.400Z,53.10
2018-12-24T19:52:12.479Z,53.00
2018-12-24T19:54:54.120Z,52.80
2018-12-24T19:57:35.557Z,53.10
2018-12-24T20:00:16.522Z,53.10
2018-12-24T20:02:57.852Z,53.30
2018-12-24T20:05:39.366Z,52.80
2018-12-24T20:08:20.862Z,52.60
2018-12-24T20:10:50.118Z,53.10
2018-12-24T20:13:20.320Z,53.10
2018-12-24T20:15:50.159Z,53.40
2018-12-24T20:18:40.135Z,53.20
2018-12-24T20:21:28.821Z,52.90
2018-12-24T20:24:17.748Z,52.90
2018-12-24T20:27:06.298Z,52.90
2018-12-24T20:30:14.836Z,53.30
2018-12-24T20:32:44.161Z,53.30
2018-12-24T20:35:33.226Z,53.00
2018-12-24T20:38:21.718Z,53.40
2018-12-24T20:41:10.409Z,52.80
2018-12-24T20:43:40.106Z,52.80
2018-12-24T20:46:29.269Z,53.40
2018-12-24T20:52:09.851Z,54.00
2018-12-24T21:05:00.859Z,53.70
2018-12-24T21:08:08.390Z,53.90
2018-12-24T21:10:57.051Z,53.60
2018-12-24T21:13:26.495Z,53.40
2018-12-24T21:15:56.176Z,53.20
2018-12-24T21:18:44.611Z,53.00
2018-12-24T21:21:32.934Z,52.80
2018-12-24T21:24:33.973Z,52.70
2018-12-24T21:27:15.416Z,53.00
2018-12-24T21:30:04.034Z,53.20
2018-12-24T21:32:52.421Z,53.00
2018-12-24T21:35:41.674Z,52.30
2018-12-24T21:38:30.034Z,51.70
2018-12-24T21:41:18.623Z,52.00
2018-12-24T21:44:07.278Z,52.40
2018-12-24T21:46:56.035Z,52.60
2018-12-24T21:49:45.939Z,52.40
2018-12-24T21:52:34.551Z,51.90
2018-12-24T21:55:22.864Z,52.30
2018-12-24T21:58:11.306Z,52.30
2018-12-24T22:00:59.944Z,52.40
2018-12-24T22:03:29.560Z,52.30
2018-12-24T22:06:18.190Z,51.80
2018-12-24T22:08:47.474Z,52.10
2018-12-24T22:11:36.163Z,52.70
2018-12-24T22:17:01.482Z,52.10
2018-12-24T22:19:49.854Z,51.60
2018-12-24T22:22:38.663Z,52.10
2018-12-24T22:25:08.640Z,52.20
2018-12-24T22:27:56.960Z,52.30
2018-12-24T22:30:45.272Z,51.90
2018-12-24T22:33:52.778Z,51.30
2018-12-24T22:36:41.434Z,51.40
2018-12-24T22:39:29.920Z,51.40
2018-12-24T22:42:18.402Z,50.60
2018-12-24T22:45:07.875Z,50.90
2018-12-24T22:47:57.096Z,50.20
2018-12-24T22:50:26.401Z,50.00
2018-12-24T22:53:15.541Z,50.10
2018-12-24T22:56:05.201Z,49.40
2018-12-24T22:58:35.634Z,50.60
2018-12-24T23:04:27.957Z,50.30
2018-12-24T23:07:09.823Z,50.60
2018-12-24T23:09:40.013Z,50.80
2018-12-24T23:12:29.189Z,50.80
2018-12-24T23:15:18.147Z,51.40
2018-12-24T23:18:07.665Z,51.20
2018-12-24T23:20:56.345Z,51.10
2018-12-24T23:23:26.614Z,51.00
2018-12-24T23:26:15.577Z,50.90
2018-12-24T23:29:04.411Z,51.70
2018-12-24T23:31:53.239Z,51.10
2018-12-24T23:34:41.601Z,50.80
2018-12-24T23:37:22.750Z,50.70
2018-12-24T23:40:03.787Z,50.80
2018-12-24T23:42:45.370Z,50.80
2018-12-24T23:45:27.027Z,50.60
2018-12-24T23:48:07.830Z,50.20
2018-12-24T23:50:37.787Z,50.00
2018-12-24T23:53:29.280Z,49.90
2018-12-24T23:56:17.770Z,49.70
2018-12-24T23:59:06.234Z,49.90
